Hamilton (NZHN)

Aerodrome — Elev 172
New Zealand
S037.51.59.980 E175.19.55.402
Loading chart...

Current Weather

NZHN 201100Z 02001KT 35KM FEW046 BKN055 17/15 Q1025 RMK AUTO VATSIM USE ONLY

Published 37 minutes ago

Airport Activity

Loading chart...
Loading chart...

Standard ATC Positions

CallsignRadio Name / Freq / Voice Room / TypeFrequencyVoice RoomType
NZCH-B_CTR Bay Approach
119.500
nzch-b_ctr
119.500nzch-b_ctr
NZHN_APP Bay Approach
125.300
nzhn_app
125.300nzhn_app
NZHN_TWR Hamilton Tower
122.900
nzhn_twr
122.900nzhn_twr
NZHN_ATIS Hamilton ATIS
128.650
nzhn_atis
128.650nzhn_atis

Event ATC Positions

This airport has additional control positions that are designated for use only during major events.
These non-standard positions must not be staffed unless specifically activated by the VATNZ Airspace Director as part of an official VATNZ event.
At all other times, controllers should use the designated Standard ATC Positions.

CallsignRadio Name / Freq / Voice Room / TypeFrequencyVoice RoomType
NZHN-R_TWR Hamilton Tower
126.800
nzhn-r_twr
126.800nzhn-r_twr

Charts